AirNav   ATP
 
 1267 users online  

51R Madisonville Municipal Airport
Madisonville, Texas, USA

GOING TO MADISONVILLE?


FAA INFORMATION EFFECTIVE 07 DECEMBER 2017

Location

FAA Identifier: 51R
Lat/Long: 30-54-46.2000N / 095-57-07.2000W
30-54.770000N / 095-57.120000W
30.9128333 / -95.9520000
(estimated)
Elevation: 286.7 ft. / 87.4 m (surveyed)
Variation: 07E (1980)
From city: 3 miles SW of MADISONVILLE, TX
Time zone: UTC -6 (UTC -5 during Daylight Saving Time)
Zip code: 77864

Airport Operations

Airport use: Open to the public
Activation date: 05/1979
Control tower: no
ARTCC: HOUSTON CENTER
FSS: MONTGOMERY COUNTY FLIGHT SERVICE STATION
FOR FP FILING CALL CXO FSS 1-800-833-5602
NOTAMs facility: CXO (NOTAM-D service available)
Attendance: UNATNDD
Wind indicator: lighted
Segmented circle: yes
Lights: SS-SR
Beacon: white-green (lighted land airport)
Operates sunset to sunrise.

Airport Communications

CTAF: 122.9
  • CTC HOUSTON ARTCC (ZHU) CLNC DELIVERY AT 281-230-5553.
  • APCH/DEP CTL PRVVD BY HOUSTON ATRCC (ZHU) ON 134.8/269.6 (COLLEGE STAION RCAG)

Nearby radio navigation aids

VOR radial/distance  VOR name  Freq  Var
LOAr168/12.7LEONA VORTAC110.8008E
CLLr045/30.4COLLEGE STATION VORTAC113.3008E
TNVr000/37.9NAVASOTA VOR/DME115.9008E

 
NDB name  Hdg/Dist  Freq  Var  ID
HUNTSVILLE293/21.330806EUTS ..- - ...

Airport Services

Parking: tiedowns
Airframe service: NONE
Powerplant service: NONE
Bottled oxygen: NONE
Bulk oxygen: NONE

Runway Information

Runway 18/36

Dimensions: 3202 x 50 ft. / 976 x 15 m
Surface: asphalt, in fair condition
Weight bearing capacity: 
Single wheel: 4.0
Runway edge lights: medium intensity
Runway edge markings: MARKINGS FADED.
RUNWAY 18  RUNWAY 36
Latitude: 30-55.030167N30-54.510183N
Longitude: 095-57.066033W095-57.173250W
Elevation: 286.7 ft.260.2 ft.
Traffic pattern: leftleft
Runway heading: 183 magnetic, 190 true003 magnetic, 010 true
Markings: nonprecision, in poor conditionnonprecision, in poor condition
Touchdown point: yes, no lightsyes, no lights
Obstructions: 61 ft. trees, 200 ft. from runway, 200 ft. left of centerline
+45 FT TREES 180 FT R & 190 FT L OF CNTRLN AT THLD TO 200 FT FM THLD
45 ft. trees, 200 ft. from runway, 190 ft. left of centerline
+40 FT TREES 180 FT L & 200 FT R OF CNTRLN AT THLD TO 200 FT TM THLD

Airport Ownership and Management from official FAA records

Ownership: Publicly-owned
Owner: CITY OF MADISONVILLE
210 W. COTTONWOOD
MADISONVILLE, TX 77864
Phone 936-348-2748
Manager: CAMILLA VIATOR
210 W. COTTONWOOD
MADISONVILLE, TX 77864
Phone 936-348-2748
CITY MANAGER

Airport Operational Statistics

Aircraft based on the field: 3
Single engine airplanes: 3
    
Aircraft operations: avg 33/month *
75% local general aviation
25% transient general aviation
* for 12-month period ending 29 December 2015

Additional Remarks

AIRPORT GATE LOCKED FROM 2200-0600 CALL 936-348-2748.

Instrument Procedures

NOTE: All procedures below are presented as PDF files. If you need a reader for these files, you should download the free Adobe Reader.

NOT FOR NAVIGATION. Please procure official charts for flight.
FAA instrument procedures published for use between 7 December 2017 at 0901Z and 4 January 2018 at 0900Z.

 
IAPs - Instrument Approach Procedures
RNAV (GPS) RWY 18   download (128KB)
RNAV (GPS) RWY 36   download (140KB)
VOR/DME RWY 18   download (140KB)
NOTE: Special Take-Off Minimums/Departure Procedures apply   download (70KB)

Other nearby airports with instrument procedures:

KUTS - Huntsville Municipal Airport (21 nm SE)
KCFD - Coulter Field Airport (23 nm SW)
KCLL - Easterwood Field Airport (29 nm SW)
60R - Navasota Municipal Airport (34 nm S)
KLHB - Hearne Municipal Airport (35 nm W)
 
Loc | Ops | Rwys | IFR | FBO | Links
Com | Nav | Svcs | Stats | Notes


 
Area around 51R (Madisonville Municipal Airport)
 
Road maps at: MapQuest Bing Google
 
Aerial photo
WARNING: Photo may not be current or correct
Aerial photo of 51R (Madisonville Municipal Airport)
Do you have a better or more recent aerial photo of Madisonville Municipal Airport that you would like to share? If so, please send us your photo.

 
Sectional chart

 
Airport distance calculator
Flying to Madisonville Municipal Airport? Find the distance to fly.

From to 51R

Sunrise and sunset
Times for 18-Dec-2017
 Local
(UTC-6)
 Zulu
(UTC)
Morning civil twilight06:5012:50
Sunrise07:1713:17
Sunset17:2423:24
Evening civil twilight17:5023:50

Current date and time
Zulu (UTC)  18-Dec-2017 14:18:34
Local (UTC-6)  18-Dec-2017 08:18:34
 
METAR
KUTS 
21nm SE 
181402Z AUTO 36003KT 2SM BR OVC002 11/11 A3019 RMK AO2 T01110106
KCFD 
23nm SW 
181355Z AUTO 04004KT 1/2SM FG OVC002 10/10 A3020 RMK AO2 T01020102
KCLL 
29nm SW 
181403Z 05006KT 2 1/2SM BR OVC003 12/11 A3019 RMK AO2 T01170111
KLHB 
35nm W 
181355Z AUTO 00000KT 2 1/2SM BR OVC002 10/10 A3021 RMK AO2 T01020102
KDKR 
37nm NE 
181350Z AUTO 00000KT 3/4SM BR 10/10 A3024 RMK AO2
TAF
KUTS 
21nm SE 
181138Z 1812/1912 00000KT 4SM BR OVC007 TEMPO 1812/1814 2SM BR OVC001 FM181500 13005KT 6SM BR OVC015 PROB30 1822/1902 3SM SHRA OVC015 FM190300 10005KT 5SM BR OVC015 FM190600 12002KT 2SM BR OVC007
NOTAMs
Click for the latest NOTAMs
NOTAMs are issued by the DoD/FAA and will open in a separate window not controlled by AirNav.

 

 
 

Would you like to see your business listed on this page?

 If your business provides an interesting product or service to pilots, flight crews, aircraft, or users of the Madisonville Municipal Airport, you should consider listing it here.  To start the listing process, click on the button below
 
Add a business
 

Other Pages about Madisonville Municipal Airport

Update a link
 
Copyright © AirNav, LLC. All rights reserved. Privacy Policy  Contact